Time;durP1;ratioP1;P1;durP2;ratioP2;P2;SDS_P1;SDS_P2;PMS_P1;PMS_P2;Temp;Humidity;BMP_temperature;BMP_pressure;BME280_temperature;BME280_humidity;BME280_pressure;Samples;Min_cycle;Max_cycle;Signal;HPM_P1;HPM_P2
2022/07/15 00:00:09;;;;;;;4.57;2.80;;;;;;;;;;5040882;28;20803;-79
2022/07/15 00:02:37;;;;;;;5.75;3.05;;;;;;;;;;5023243;28;20213;-80
2022/07/15 00:05:06;;;;;;;4.57;3.05;;;;;;;;;;5046898;28;20226;-79
2022/07/15 00:07:34;;;;;;;4.55;2.92;;;;;;;;;;5036893;28;20218;-79
2022/07/15 00:10:14;;;;;;;4.68;2.83;;;;;;;;;;5027444;28;20642;-80
2022/07/15 00:12:43;;;;;;;4.10;2.70;;;;;;;;;;5038976;28;20229;-80
2022/07/15 00:15:11;;;;;;;6.70;2.70;;;;;;;;;;5041043;28;20698;-81
2022/07/15 00:17:39;;;;;;;3.40;3.00;;;;;;;;;;5032173;28;20291;-81
2022/07/15 00:20:07;;;;;;;5.40;2.78;;;;;;;;;;5042165;28;20260;-79
2022/07/15 00:22:34;;;;;;;4.32;2.65;;;;;;;;;;5041756;28;20684;-81
2022/07/15 00:25:03;;;;;;;2.88;2.60;;;;;;;;;;5007272;28;20304;-81
2022/07/15 00:27:30;;;;;;;3.10;2.80;;;;;;;;;;5041446;28;20634;-80
2022/07/15 00:29:58;;;;;;;4.45;3.10;;;;;;;;;;5043818;28;20195;-78
2022/07/15 00:32:26;;;;;;;3.70;2.90;;;;;;;;;;5029134;28;20578;-78
2022/07/15 00:34:55;;;;;;;4.75;2.90;;;;;;;;;;5039861;28;20226;-79
2022/07/15 00:37:24;;;;;;;5.43;2.90;;;;;;;;;;5038673;28;20217;-80
2022/07/15 00:39:52;;;;;;;3.37;2.83;;;;;;;;;;5029937;28;20210;-78
2022/07/15 00:45:09;;;;;;;4.10;2.67;;;;;;;;;;5054154;28;20649;-78
2022/07/15 00:47:37;;;;;;;6.07;3.10;;;;;;;;;;5041497;28;20198;-80
2022/07/15 00:50:05;;;;;;;4.00;2.73;;;;;;;;;;5053334;28;20198;-79
2022/07/15 00:52:35;;;;;;;3.63;2.67;;;;;;;;;;5044333;28;20620;-78
2022/07/15 00:55:06;;;;;;;4.53;2.70;;;;;;;;;;5044533;28;20218;-81
2022/07/15 00:57:35;;;;;;;5.73;3.50;;;;;;;;;;5024884;28;20203;-80
2022/07/15 01:00:04;;;;;;;8.23;4.38;;;;;;;;;;5025170;28;20601;-78
2022/07/15 01:02:33;;;;;;;6.80;2.93;;;;;;;;;;5040670;28;20210;-80
2022/07/15 01:05:01;;;;;;;3.43;2.70;;;;;;;;;;5039989;28;20230;-79
2022/07/15 01:07:29;;;;;;;7.03;3.10;;;;;;;;;;5033794;28;20201;-80
2022/07/15 01:09:57;;;;;;;5.10;2.83;;;;;;;;;;5042371;28;20267;-78
2022/07/15 01:12:26;;;;;;;3.33;2.60;;;;;;;;;;5032129;28;20197;-78
2022/07/15 01:14:53;;;;;;;4.10;2.80;;;;;;;;;;5030706;28;20203;-79
2022/07/15 01:17:21;;;;;;;4.43;2.77;;;;;;;;;;5028946;28;20229;-79
2022/07/15 01:19:49;;;;;;;6.03;3.20;;;;;;;;;;5044623;28;20206;-80
2022/07/15 01:22:16;;;;;;;4.67;2.60;;;;;;;;;;5043320;28;20287;-81
2022/07/15 01:24:43;;;;;;;4.33;3.00;;;;;;;;;;5045676;28;20244;-81
2022/07/15 01:27:11;;;;;;;3.17;2.90;;;;;;;;;;5038831;28;20269;-80
2022/07/15 01:29:38;;;;;;;4.63;2.80;;;;;;;;;;5038720;28;20205;-80
2022/07/15 01:32:06;;;;;;;5.00;3.20;;;;;;;;;;5043954;28;20734;-81
2022/07/15 01:34:34;;;;;;;4.43;2.87;;;;;;;;;;5040980;28;20290;-80
2022/07/15 01:37:03;;;;;;;3.90;3.13;;;;;;;;;;5023294;28;20248;-80
2022/07/15 01:39:31;;;;;;;4.30;2.83;;;;;;;;;;5038428;28;20630;-80
2022/07/15 01:42:05;;;;;;;4.37;3.17;;;;;;;;;;5036842;28;20287;-80
2022/07/15 01:44:33;;;;;;;3.87;2.77;;;;;;;;;;5038097;28;20201;-80
2022/07/15 01:47:01;;;;;;;6.40;3.07;;;;;;;;;;5039611;28;20663;-80
2022/07/15 01:49:31;;;;;;;5.63;2.97;;;;;;;;;;5042608;28;20204;-80
2022/07/15 01:52:00;;;;;;;3.97;2.70;;;;;;;;;;5025016;28;20210;-80
2022/07/15 01:54:29;;;;;;;4.43;2.83;;;;;;;;;;5021805;28;20288;-80
2022/07/15 01:56:58;;;;;;;5.27;3.57;;;;;;;;;;5033942;28;20779;-79
2022/07/15 01:59:26;;;;;;;4.93;3.00;;;;;;;;;;5041573;28;20207;-80
2022/07/15 02:01:54;;;;;;;6.00;3.20;;;;;;;;;;5035649;28;20586;-79
2022/07/15 02:04:22;;;;;;;5.20;3.03;;;;;;;;;;5023244;28;20197;-79
2022/07/15 02:06:50;;;;;;;4.30;3.17;;;;;;;;;;5023616;28;20230;-79
2022/07/15 02:09:17;;;;;;;6.30;3.53;;;;;;;;;;5038751;28;20293;-79
2022/07/15 02:11:46;;;;;;;4.67;2.80;;;;;;;;;;5038749;28;20210;-80
2022/07/15 02:14:13;;;;;;;4.27;3.13;;;;;;;;;;5026383;28;20195;-79
2022/07/15 02:16:40;;;;;;;3.67;2.80;;;;;;;;;;5038126;28;20657;-80
2022/07/15 02:19:08;;;;;;;5.07;2.80;;;;;;;;;;5032812;28;20210;-79
2022/07/15 02:21:36;;;;;;;4.27;2.77;;;;;;;;;;5034017;28;20281;-77
2022/07/15 02:24:04;;;;;;;4.03;3.10;;;;;;;;;;5038197;28;20214;-81
2022/07/15 02:26:32;;;;;;;4.47;3.33;;;;;;;;;;5022801;28;20253;-80
2022/07/15 02:29:00;;;;;;;6.73;3.60;;;;;;;;;;5042384;28;20203;-81
2022/07/15 02:31:27;;;;;;;3.20;2.90;;;;;;;;;;5036911;28;20281;-82
2022/07/15 02:33:55;;;;;;;4.47;3.13;;;;;;;;;;5025812;28;20201;-79
2022/07/15 02:36:22;;;;;;;4.17;3.20;;;;;;;;;;5042045;28;20225;-80
2022/07/15 02:38:50;;;;;;;5.03;3.40;;;;;;;;;;5040611;28;20272;-81
2022/07/15 02:41:17;;;;;;;4.67;3.40;;;;;;;;;;5020800;28;20202;-80
2022/07/15 02:43:44;;;;;;;5.00;3.43;;;;;;;;;;5033900;28;23154;-81
2022/07/15 02:46:11;;;;;;;4.37;3.03;;;;;;;;;;5044366;28;20230;-81
2022/07/15 02:48:39;;;;;;;5.13;3.50;;;;;;;;;;5039116;28;20214;-81
2022/07/15 02:51:06;;;;;;;3.97;3.50;;;;;;;;;;5041219;28;20960;-80
2022/07/15 02:53:34;;;;;;;3.40;3.10;;;;;;;;;;5042478;28;20198;-80
2022/07/15 02:56:02;;;;;;;5.37;3.13;;;;;;;;;;5038916;28;20258;-83
2022/07/15 02:58:30;;;;;;;2.83;2.60;;;;;;;;;;5036768;28;20205;-80
2022/07/15 03:00:58;;;;;;;4.97;2.90;;;;;;;;;;5041854;28;20214;-82
2022/07/15 03:03:29;;;;;;;3.97;2.67;;;;;;;;;;5041015;28;20201;-79
2022/07/15 03:05:57;;;;;;;4.07;3.00;;;;;;;;;;5042806;28;20355;-80
2022/07/15 03:08:24;;;;;;;3.20;2.90;;;;;;;;;;5039668;28;20250;-80
2022/07/15 03:10:52;;;;;;;3.47;2.80;;;;;;;;;;5042388;28;20205;-80
2022/07/15 03:13:19;;;;;;;4.10;3.10;;;;;;;;;;5039638;28;20268;-80
2022/07/15 03:15:46;;;;;;;3.33;2.93;;;;;;;;;;5024602;28;20271;-80
2022/07/15 03:18:14;;;;;;;3.97;2.87;;;;;;;;;;5034289;28;20325;-82
2022/07/15 03:20:41;;;;;;;4.50;2.90;;;;;;;;;;5038299;28;20297;-79
2022/07/15 03:23:14;;;;;;;5.17;3.33;;;;;;;;;;5039316;28;20520;-82
2022/07/15 03:25:41;;;;;;;4.07;3.20;;;;;;;;;;5040313;28;20245;-80
2022/07/15 03:28:09;;;;;;;5.23;3.10;;;;;;;;;;5036502;28;20262;-78
2022/07/15 03:30:37;;;;;;;4.23;3.30;;;;;;;;;;5035614;28;20668;-80
2022/07/15 03:33:05;;;;;;;8.47;3.70;;;;;;;;;;5022924;28;20198;-79
2022/07/15 03:35:32;;;;;;;4.10;3.40;;;;;;;;;;5026620;28;20234;-81
2022/07/15 03:38:00;;;;;;;3.83;3.43;;;;;;;;;;5021225;28;20218;-81
2022/07/15 03:40:28;;;;;;;4.50;3.80;;;;;;;;;;5037133;28;20312;-80
2022/07/15 03:42:56;;;;;;;4.97;3.97;;;;;;;;;;5037675;28;20212;-78
2022/07/15 03:45:23;;;;;;;6.20;3.60;;;;;;;;;;5038515;28;20234;-79
2022/07/15 03:47:50;;;;;;;5.53;3.70;;;;;;;;;;5036838;28;21099;-82
2022/07/15 03:50:18;;;;;;;3.93;3.43;;;;;;;;;;5031832;28;20738;-80
2022/07/15 03:52:45;;;;;;;4.60;3.67;;;;;;;;;;5037932;28;20249;-80
2022/07/15 03:55:13;;;;;;;6.77;3.70;;;;;;;;;;5025164;28;20223;-79
2022/07/15 03:57:41;;;;;;;4.00;3.60;;;;;;;;;;5023592;28;20289;-80
2022/07/15 04:00:08;;;;;;;3.70;3.37;;;;;;;;;;4980864;28;1176422;-83
2022/07/15 04:02:36;;;;;;;4.93;3.50;;;;;;;;;;5035045;28;20268;-79
2022/07/15 04:05:09;;;;;;;3.80;3.40;;;;;;;;;;5039810;28;20222;-80
2022/07/15 04:07:37;;;;;;;3.40;3.10;;;;;;;;;;5023380;28;20624;-80
2022/07/15 04:10:04;;;;;;;3.63;3.33;;;;;;;;;;5037849;28;20256;-81
2022/07/15 04:12:31;;;;;;;3.77;3.30;;;;;;;;;;5038579;28;20263;-78
2022/07/15 04:14:59;;;;;;;9.90;3.40;;;;;;;;;;5047927;28;20774;-80
2022/07/15 04:17:27;;;;;;;4.30;3.27;;;;;;;;;;5037445;28;20287;-80
2022/07/15 04:19:54;;;;;;;5.30;3.97;;;;;;;;;;5046230;28;20229;-81
2022/07/15 04:22:21;;;;;;;8.00;3.83;;;;;;;;;;5043196;28;20633;-81
2022/07/15 04:24:48;;;;;;;5.93;4.47;;;;;;;;;;5034564;28;20705;-80
2022/07/15 04:27:15;;;;;;;4.77;3.83;;;;;;;;;;5033261;28;20222;-81
2022/07/15 04:29:43;;;;;;;3.67;3.37;;;;;;;;;;5020194;28;21309;-78
2022/07/15 04:32:11;;;;;;;10.77;6.97;;;;;;;;;;5037506;28;20198;-79
2022/07/15 04:34:40;;;;;;;6.43;4.50;;;;;;;;;;5040716;28;20297;-78
2022/07/15 04:37:08;;;;;;;9.37;5.40;;;;;;;;;;5049307;28;20198;-82
2022/07/15 04:39:35;;;;;;;4.20;3.70;;;;;;;;;;5036214;28;20317;-85
2022/07/15 04:42:03;;;;;;;4.10;3.70;;;;;;;;;;5040809;28;20218;-84
2022/07/15 04:44:30;;;;;;;4.60;3.70;;;;;;;;;;5049942;28;20206;-86
2022/07/15 04:47:02;;;;;;;5.83;3.97;;;;;;;;;;5020364;28;20234;-85
2022/07/15 04:52:16;;;;;;;4.83;3.53;;;;;;;;;;5044918;28;20226;-87
2022/07/15 04:54:44;;;;;;;4.30;3.90;;;;;;;;;;5026080;28;20206;-84
2022/07/15 04:57:14;;;;;;;6.30;4.07;;;;;;;;;;5039162;28;20206;-83
2022/07/15 04:59:42;;;;;;;5.80;4.00;;;;;;;;;;5042521;28;20244;-81
2022/07/15 05:02:09;;;;;;;4.70;4.00;;;;;;;;;;5041459;28;20296;-84
2022/07/15 05:04:38;;;;;;;5.17;3.70;;;;;;;;;;5038434;28;20730;-83
2022/07/15 05:07:07;;;;;;;4.73;4.13;;;;;;;;;;5043800;28;20387;-80
2022/07/15 05:09:34;;;;;;;5.17;3.90;;;;;;;;;;5051441;28;20202;-81
2022/07/15 05:12:01;;;;;;;5.97;3.77;;;;;;;;;;5027072;28;20206;-83
2022/07/15 05:14:29;;;;;;;7.67;4.27;;;;;;;;;;5028344;28;20205;-82
2022/07/15 05:16:56;;;;;;;7.90;3.90;;;;;;;;;;5038117;28;20281;-81
2022/07/15 05:19:23;;;;;;;5.40;3.73;;;;;;;;;;5039400;28;20225;-81
2022/07/15 05:21:50;;;;;;;4.03;3.63;;;;;;;;;;5034442;28;20202;-83
2022/07/15 05:24:18;;;;;;;5.27;3.57;;;;;;;;;;5042103;28;20206;-83
2022/07/15 05:26:55;;;;;;;4.90;3.60;;;;;;;;;;5041498;28;20260;-84
2022/07/15 05:29:23;;;;;;;6.27;3.37;;;;;;;;;;5039938;28;20292;-80
2022/07/15 05:31:50;;;;;;;5.03;4.17;;;;;;;;;;5043857;28;20202;-80
2022/07/15 05:34:18;;;;;;;4.20;3.47;;;;;;;;;;5045448;28;20194;-80
2022/07/15 05:36:45;;;;;;;5.75;3.22;;;;;;;;;;5044193;28;20253;-83
2022/07/15 05:39:12;;;;;;;5.78;3.20;;;;;;;;;;5022005;28;20715;-82
2022/07/15 05:41:52;;;;;;;4.03;3.08;;;;;;;;;;5041561;28;20211;-83
2022/07/15 05:44:25;;;;;;;2.63;2.33;;;;;;;;;;5021341;28;20169;-82
2022/07/15 05:50:45;;;;;;;3.63;2.20;;;;;;;;;;5050161;28;20222;-83
2022/07/15 05:56:42;;;;;;;2.35;2.15;;;;;;;;;;4989794;28;20236;-84
2022/07/15 05:59:09;;;;;;;3.63;2.25;;;;;;;;;;5046312;28;20206;-79
2022/07/15 06:01:55;;;;;;;3.83;2.03;;;;;;;;;;5048020;28;20214;-83
2022/07/15 06:04:29;;;;;;;1.77;1.63;;;;;;;;;;5034874;28;20663;-81
2022/07/15 06:06:56;;;;;;;2.88;1.70;;;;;;;;;;5042496;28;20252;-82
2022/07/15 06:09:24;;;;;;;2.53;1.98;;;;;;;;;;5048231;28;20682;-81
2022/07/15 06:11:54;;;;;;;2.72;1.75;;;;;;;;;;5039366;28;20813;-83
2022/07/15 06:14:21;;;;;;;2.13;1.70;;;;;;;;;;5047794;28;20203;-81
2022/07/15 06:16:57;;;;;;;2.55;1.88;;;;;;;;;;5033046;28;20237;-85
2022/07/15 06:19:24;;;;;;;2.70;1.95;;;;;;;;;;5031454;28;20283;-81
2022/07/15 06:25:10;;;;;;;4.72;1.60;;;;;;;;;;4988275;28;20223;-81
2022/07/15 06:27:39;;;;;;;2.00;1.70;;;;;;;;;;5052971;28;20662;-82
2022/07/15 06:30:07;;;;;;;4.57;1.90;;;;;;;;;;5043847;28;20264;-79
2022/07/15 06:32:34;;;;;;;2.45;1.73;;;;;;;;;;5029175;28;20320;-85
2022/07/15 06:35:02;;;;;;;2.90;1.70;;;;;;;;;;5031352;28;20225;-85
2022/07/15 06:37:32;;;;;;;6.30;2.08;;;;;;;;;;5044058;28;20211;-83
2022/07/15 06:40:00;;;;;;;3.58;1.83;;;;;;;;;;5051354;28;20214;-83
2022/07/15 06:42:27;;;;;;;3.63;2.10;;;;;;;;;;5048735;28;20284;-80
2022/07/15 06:44:56;;;;;;;2.20;1.83;;;;;;;;;;5050525;28;20229;-80
2022/07/15 06:47:23;;;;;;;2.30;1.70;;;;;;;;;;5031719;28;20257;-80
2022/07/15 06:49:51;;;;;;;2.63;2.00;;;;;;;;;;5049316;28;20691;-80
2022/07/15 06:52:18;;;;;;;4.40;1.90;;;;;;;;;;5049970;28;20873;-82
2022/07/15 06:54:46;;;;;;;2.40;1.80;;;;;;;;;;5045111;28;20230;-80
2022/07/15 06:57:16;;;;;;;1.92;1.70;;;;;;;;;;5048013;28;20293;-81
2022/07/15 06:59:46;;;;;;;3.28;1.70;;;;;;;;;;5043160;28;20222;-84
2022/07/15 07:02:14;;;;;;;4.13;1.50;;;;;;;;;;5045702;28;20206;-82
2022/07/15 07:04:42;;;;;;;1.85;1.75;;;;;;;;;;5044585;28;20210;-83
2022/07/15 07:07:09;;;;;;;3.13;1.52;;;;;;;;;;5045131;28;20261;-81
2022/07/15 07:09:37;;;;;;;2.47;1.42;;;;;;;;;;5043482;28;20194;-83
2022/07/15 07:12:04;;;;;;;2.00;1.40;;;;;;;;;;5042352;28;20589;-83
2022/07/15 07:14:31;;;;;;;1.90;1.58;;;;;;;;;;5039589;28;20248;-82
2022/07/15 07:16:59;;;;;;;2.90;1.50;;;;;;;;;;5045381;28;20707;-82
2022/07/15 07:19:26;;;;;;;2.05;1.65;;;;;;;;;;5044744;28;20198;-81
2022/07/15 07:21:53;;;;;;;3.70;1.75;;;;;;;;;;5041197;28;20278;-81
2022/07/15 07:24:20;;;;;;;3.42;1.40;;;;;;;;;;5041598;28;20260;-81
2022/07/15 07:27:12;;;;;;;4.07;1.52;;;;;;;;;;5027872;28;20242;-80
2022/07/15 07:29:40;;;;;;;2.85;1.85;;;;;;;;;;5024573;28;20214;-80
2022/07/15 07:32:08;;;;;;;4.55;1.52;;;;;;;;;;5026620;28;20206;-81
2022/07/15 07:34:37;;;;;;;3.50;1.80;;;;;;;;;;5020011;28;20210;-83
2022/07/15 07:37:04;;;;;;;3.22;1.80;;;;;;;;;;5028047;28;20210;-84
2022/07/15 07:39:38;;;;;;;2.50;2.00;;;;;;;;;;5029513;28;20214;-83
2022/07/15 07:42:25;;;;;;;3.60;1.90;;;;;;;;;;5028971;28;20211;-79
2022/07/15 07:44:52;;;;;;;1.60;1.40;;;;;;;;;;5038965;28;20241;-78
2022/07/15 07:47:21;;;;;;;2.63;1.30;;;;;;;;;;5042901;28;20643;-78
2022/07/15 07:49:51;;;;;;;2.05;1.60;;;;;;;;;;5042975;28;20202;-80
2022/07/15 07:52:19;;;;;;;3.65;1.40;;;;;;;;;;5023177;28;20199;-79
2022/07/15 07:54:53;;;;;;;4.47;1.92;;;;;;;;;;5024480;28;20310;-80
2022/07/15 07:57:21;;;;;;;4.63;1.73;;;;;;;;;;5023738;28;20227;-80
2022/07/15 07:59:48;;;;;;;3.92;1.88;;;;;;;;;;5042533;28;20267;-78
2022/07/15 08:02:32;;;;;;;2.08;1.65;;;;;;;;;;4965062;28;20204;-83
2022/07/15 08:05:02;;;;;;;3.00;1.70;;;;;;;;;;4958517;28;20993;-79
2022/07/15 08:07:29;;;;;;;6.95;1.90;;;;;;;;;;4960049;28;20316;-83
2022/07/15 08:09:57;;;;;;;3.03;2.05;;;;;;;;;;4987715;28;20608;-81
2022/07/15 08:12:24;;;;;;;2.42;1.80;;;;;;;;;;5042863;28;20229;-76
2022/07/15 08:14:54;;;;;;;3.30;1.88;;;;;;;;;;5037866;28;20211;-80
2022/07/15 08:17:22;;;;;;;4.38;1.80;;;;;;;;;;5041012;28;20205;-81
2022/07/15 08:19:50;;;;;;;4.05;1.77;;;;;;;;;;5045633;28;20209;-82
2022/07/15 08:22:18;;;;;;;2.88;1.77;;;;;;;;;;5021526;28;20210;-80
2022/07/15 08:24:49;;;;;;;3.75;1.80;;;;;;;;;;5045488;28;20260;-80
2022/07/15 08:27:17;;;;;;;1.88;1.75;;;;;;;;;;5027555;28;20234;-80
2022/07/15 08:29:45;;;;;;;2.35;2.00;;;;;;;;;;5046041;28;20195;-80
2022/07/15 08:32:13;;;;;;;5.93;2.03;;;;;;;;;;5029875;28;20201;-79
2022/07/15 08:34:41;;;;;;;4.43;2.70;;;;;;;;;;5044230;28;20248;-80
2022/07/15 08:37:09;;;;;;;6.20;2.25;;;;;;;;;;5032888;28;20252;-81
2022/07/15 08:39:37;;;;;;;2.88;2.15;;;;;;;;;;5037799;28;20276;-82
2022/07/15 08:42:05;;;;;;;4.15;1.85;;;;;;;;;;5026555;28;20881;-80
2022/07/15 08:44:32;;;;;;;2.67;2.10;;;;;;;;;;5038731;28;20214;-77
2022/07/15 08:47:08;;;;;;;2.97;1.92;;;;;;;;;;5036165;28;20250;-81
2022/07/15 08:49:57;;;;;;;4.90;2.17;;;;;;;;;;5039665;28;20197;-82
2022/07/15 08:52:25;;;;;;;2.15;1.92;;;;;;;;;;5033907;28;21664;-79
2022/07/15 08:54:52;;;;;;;4.90;2.30;;;;;;;;;;5009186;28;20834;-82
2022/07/15 08:57:21;;;;;;;6.38;2.40;;;;;;;;;;5038609;28;20238;-81
2022/07/15 08:59:48;;;;;;;4.20;2.50;;;;;;;;;;5042056;28;20214;-81
2022/07/15 09:02:19;;;;;;;5.13;2.40;;;;;;;;;;5024919;28;20764;-80
2022/07/15 09:05:05;;;;;;;3.38;2.25;;;;;;;;;;5031966;28;20236;-81
2022/07/15 09:07:52;;;;;;;7.05;2.33;;;;;;;;;;5038608;28;20226;-85
2022/07/15 09:10:46;;;;;;;4.93;2.22;;;;;;;;;;5042556;28;20206;-82
2022/07/15 09:13:43;;;;;;;4.25;2.10;;;;;;;;;;5031831;28;20298;-85
2022/07/15 09:16:13;;;;;;;2.65;2.20;;;;;;;;;;5008421;28;20611;-84
2022/07/15 09:18:42;;;;;;;3.10;2.20;;;;;;;;;;5042562;28;20206;-84
2022/07/15 09:21:16;;;;;;;3.60;2.15;;;;;;;;;;5042503;28;20648;-82
2022/07/15 09:23:44;;;;;;;2.40;2.20;;;;;;;;;;5044647;28;20205;-81
2022/07/15 09:38:27;;;;;;;6.55;2.38;;;;;;;;;;5024935;28;20244;-79
2022/07/15 09:40:56;;;;;;;3.80;2.47;;;;;;;;;;5008183;28;20511;-85
2022/07/15 09:43:23;;;;;;;3.33;2.30;;;;;;;;;;5020547;28;20202;-81
2022/07/15 09:46:00;;;;;;;2.95;2.28;;;;;;;;;;5017530;28;20226;-81
2022/07/15 09:48:29;;;;;;;2.45;2.00;;;;;;;;;;5016805;28;20253;-84
2022/07/15 09:51:00;;;;;;;5.30;2.47;;;;;;;;;;5001885;28;20263;-80
2022/07/15 09:53:28;;;;;;;3.63;2.65;;;;;;;;;;5028976;28;20198;-81
2022/07/15 09:55:55;;;;;;;3.60;3.05;;;;;;;;;;5002101;28;20230;-81
2022/07/15 09:58:23;;;;;;;3.33;2.67;;;;;;;;;;5039055;28;20633;-83
2022/07/15 10:00:52;;;;;;;4.45;2.20;;;;;;;;;;5040333;28;20234;-82
2022/07/15 10:03:23;;;;;;;4.82;2.30;;;;;;;;;;5034427;28;20224;-83
2022/07/15 10:05:53;;;;;;;2.85;2.10;;;;;;;;;;5035165;28;20235;-80
2022/07/15 10:08:21;;;;;;;3.95;2.70;;;;;;;;;;5042058;28;20219;-81
2022/07/15 10:10:51;;;;;;;3.95;2.33;;;;;;;;;;5046792;28;20213;-84
2022/07/15 10:13:37;;;;;;;5.80;2.60;;;;;;;;;;5055508;28;20198;-78
2022/07/15 10:16:23;;;;;;;2.65;2.10;;;;;;;;;;5025841;28;20253;-80
2022/07/15 10:18:54;;;;;;;3.70;2.50;;;;;;;;;;5040919;28;20253;-81
2022/07/15 10:21:36;;;;;;;3.70;2.35;;;;;;;;;;5038906;28;20221;-80
2022/07/15 10:24:11;;;;;;;2.78;2.47;;;;;;;;;;5038544;28;20248;-78
2022/07/15 10:26:51;;;;;;;4.38;2.65;;;;;;;;;;5045216;28;20622;-81
2022/07/15 10:29:19;;;;;;;6.55;2.70;;;;;;;;;;5036715;28;20643;-79
2022/07/15 10:31:56;;;;;;;3.28;2.30;;;;;;;;;;5017595;28;20670;-80
2022/07/15 10:34:24;;;;;;;3.72;2.72;;;;;;;;;;5015492;28;20201;-79
2022/07/15 10:36:57;;;;;;;3.05;2.53;;;;;;;;;;5026404;28;20658;-85
2022/07/15 10:39:27;;;;;;;3.75;2.80;;;;;;;;;;5040535;28;20256;-82
2022/07/15 10:42:02;;;;;;;5.07;2.83;;;;;;;;;;5043443;28;20214;-82
2022/07/15 10:44:33;;;;;;;2.90;2.55;;;;;;;;;;5038355;28;20210;-81
2022/07/15 10:47:13;;;;;;;5.40;3.00;;;;;;;;;;5043325;28;20296;-82
2022/07/15 10:49:41;;;;;;;4.60;2.75;;;;;;;;;;5048435;28;20927;-81
2022/07/15 10:52:20;;;;;;;2.80;2.60;;;;;;;;;;5043454;28;20210;-82
2022/07/15 10:54:51;;;;;;;4.93;2.90;;;;;;;;;;5043943;28;20206;-82
2022/07/15 10:57:20;;;;;;;3.60;2.60;;;;;;;;;;5023387;28;20671;-79
2022/07/15 10:59:49;;;;;;;3.72;2.65;;;;;;;;;;5042229;28;20210;-81
2022/07/15 11:02:17;;;;;;;4.13;2.65;;;;;;;;;;5021508;28;20206;-82
2022/07/15 11:04:45;;;;;;;5.65;2.83;;;;;;;;;;5039168;28;20245;-82
2022/07/15 11:07:18;;;;;;;4.07;2.78;;;;;;;;;;5043935;28;20958;-81
2022/07/15 11:09:55;;;;;;;6.78;2.85;;;;;;;;;;5018862;28;20214;-82
2022/07/15 11:12:24;;;;;;;4.20;2.60;;;;;;;;;;5006647;28;21263;-78
2022/07/15 11:14:57;;;;;;;3.75;2.60;;;;;;;;;;5046980;28;20272;-82
2022/07/15 11:17:27;;;;;;;2.90;2.58;;;;;;;;;;5029568;28;20235;-79
2022/07/15 11:23:54;;;;;;;3.25;2.47;;;;;;;;;;5049224;28;20189;-78
2022/07/15 11:26:40;;;;;;;4.63;2.50;;;;;;;;;;5027614;28;20226;-84
2022/07/15 11:29:30;;;;;;;4.05;2.67;;;;;;;;;;5035213;28;20698;-81
2022/07/15 11:32:23;;;;;;;4.57;2.65;;;;;;;;;;5016659;28;20239;-81
2022/07/15 11:34:54;;;;;;;3.85;2.65;;;;;;;;;;5034548;28;20202;-80
2022/07/15 11:37:29;;;;;;;3.42;2.47;;;;;;;;;;5036925;28;20237;-80
2022/07/15 11:40:05;;;;;;;3.15;2.60;;;;;;;;;;5038713;28;20630;-82
2022/07/15 11:45:36;;;;;;;4.75;2.70;;;;;;;;;;5046704;28;20272;-83
2022/07/15 11:48:06;;;;;;;3.53;2.60;;;;;;;;;;5042342;28;20226;-79
2022/07/15 11:50:54;;;;;;;5.85;2.60;;;;;;;;;;5026019;28;20639;-80
2022/07/15 11:53:22;;;;;;;3.08;2.78;;;;;;;;;;5024145;28;20264;-80
2022/07/15 11:55:54;;;;;;;3.83;2.97;;;;;;;;;;5036057;28;20228;-82
2022/07/15 11:58:30;;;;;;;4.85;3.72;;;;;;;;;;5039884;28;20213;-82
2022/07/15 12:00:58;;;;;;;5.53;3.30;;;;;;;;;;5043370;28;20260;-83
2022/07/15 12:03:32;;;;;;;3.97;2.83;;;;;;;;;;5038922;28;20206;-82
2022/07/15 12:06:00;;;;;;;5.00;3.40;;;;;;;;;;5022677;28;20234;-79
2022/07/15 12:08:54;;;;;;;2.67;2.47;;;;;;;;;;5034087;28;20327;-84
2022/07/15 12:11:26;;;;;;;5.50;3.05;;;;;;;;;;5003961;28;20285;-82
2022/07/15 12:14:02;;;;;;;3.70;2.67;;;;;;;;;;5035661;28;20206;-81
2022/07/15 12:16:51;;;;;;;3.58;2.25;;;;;;;;;;5027948;28;20536;-79
2022/07/15 12:19:28;;;;;;;2.55;2.28;;;;;;;;;;5019582;28;20667;-80
2022/07/15 12:22:02;;;;;;;3.92;2.20;;;;;;;;;;5042888;28;20664;-81
2022/07/15 12:24:43;;;;;;;2.15;2.05;;;;;;;;;;5020459;28;20209;-79
2022/07/15 12:27:12;;;;;;;3.17;2.47;;;;;;;;;;5019930;28;20687;-81
2022/07/15 12:29:40;;;;;;;2.50;2.30;;;;;;;;;;5028058;28;20926;-80
2022/07/15 12:32:27;;;;;;;3.72;2.47;;;;;;;;;;5034986;28;20640;-83
2022/07/15 12:34:59;;;;;;;3.47;2.30;;;;;;;;;;5038444;28;20202;-80
2022/07/15 12:37:26;;;;;;;5.57;2.47;;;;;;;;;;5025544;28;20225;-79
2022/07/15 12:40:14;;;;;;;2.83;2.13;;;;;;;;;;5037835;28;20210;-81
2022/07/15 12:42:44;;;;;;;3.17;2.00;;;;;;;;;;5029642;28;20561;-80
2022/07/15 12:45:22;;;;;;;3.15;1.95;;;;;;;;;;5017915;28;20268;-80
2022/07/15 12:48:02;;;;;;;3.58;2.45;;;;;;;;;;5032318;28;20233;-82
2022/07/15 12:50:30;;;;;;;3.75;2.67;;;;;;;;;;5020594;28;20202;-80
2022/07/15 12:52:57;;;;;;;4.60;2.40;;;;;;;;;;5021215;28;20779;-80
2022/07/15 12:55:26;;;;;;;5.13;2.30;;;;;;;;;;5033262;28;20779;-80
2022/07/15 12:58:03;;;;;;;5.32;2.42;;;;;;;;;;5015949;28;20207;-80
2022/07/15 13:00:30;;;;;;;5.05;3.28;;;;;;;;;;5045759;28;20214;-80
2022/07/15 13:03:03;;;;;;;3.58;2.22;;;;;;;;;;5040158;28;20210;-82
2022/07/15 13:05:32;;;;;;;2.85;2.53;;;;;;;;;;5017340;28;20680;-79
2022/07/15 13:08:00;;;;;;;3.78;2.58;;;;;;;;;;5023039;28;20214;-80
2022/07/15 13:10:28;;;;;;;4.22;2.55;;;;;;;;;;5024157;28;20202;-85
2022/07/15 13:13:04;;;;;;;4.55;2.40;;;;;;;;;;5038758;28;20397;-83
2022/07/15 13:15:35;;;;;;;2.38;2.10;;;;;;;;;;5038544;28;20235;-85
2022/07/15 13:18:05;;;;;;;4.03;2.28;;;;;;;;;;5020393;28;20202;-87
2022/07/15 13:20:36;;;;;;;4.50;2.40;;;;;;;;;;5019302;28;20301;-86
2022/07/15 13:23:04;;;;;;;6.18;2.80;;;;;;;;;;5043818;28;20462;-86
2022/07/15 13:25:36;;;;;;;4.55;2.50;;;;;;;;;;5046317;28;20233;-86
2022/07/15 13:28:07;;;;;;;2.53;2.28;;;;;;;;;;5022033;28;20230;-86
2022/07/15 13:30:35;;;;;;;2.40;2.20;;;;;;;;;;5017388;28;20653;-84
2022/07/15 13:33:40;;;;;;;2.90;2.70;;;;;;;;;;5039381;28;20194;-87
2022/07/15 13:36:38;;;;;;;2.90;2.28;;;;;;;;;;5130264;23;20260;-87
2022/07/15 13:43:41;;;;;;;;;;;;;;;;;;;;;
2022/07/15 13:46:32;;;;;;;3.10;2.80;;;;;;;;;;5049958;22;20255;-68
2022/07/15 13:49:00;;;;;;;4.95;2.60;;;;;;;;;;5026416;28;20254;-67
2022/07/15 13:51:27;;;;;;;3.63;2.35;;;;;;;;;;5024101;28;20198;-67
2022/07/15 13:53:56;;;;;;;3.22;2.60;;;;;;;;;;5041653;28;20202;-67
2022/07/15 13:56:25;;;;;;;4.88;2.78;;;;;;;;;;5027541;28;20217;-68
2022/07/15 13:58:57;;;;;;;2.97;2.30;;;;;;;;;;5039761;28;20248;-67
2022/07/15 14:01:26;;;;;;;6.50;2.20;;;;;;;;;;5025244;28;20213;-68
2022/07/15 14:03:54;;;;;;;4.15;2.53;;;;;;;;;;5042520;28;20210;-65
2022/07/15 14:06:22;;;;;;;2.97;2.30;;;;;;;;;;5026422;28;20555;-67
2022/07/15 14:08:49;;;;;;;5.15;2.70;;;;;;;;;;5021043;28;20269;-67
2022/07/15 14:11:17;;;;;;;3.28;2.60;;;;;;;;;;5022758;28;20206;-69
2022/07/15 14:13:45;;;;;;;3.30;2.65;;;;;;;;;;5034828;28;20734;-68
2022/07/15 14:16:12;;;;;;;3.08;2.35;;;;;;;;;;5030668;28;20229;-66
2022/07/15 14:18:42;;;;;;;2.85;2.40;;;;;;;;;;5041505;28;20680;-68
2022/07/15 14:21:10;;;;;;;4.18;2.47;;;;;;;;;;5043842;28;20214;-68
2022/07/15 14:23:38;;;;;;;10.30;3.15;;;;;;;;;;5025557;28;20214;-68
2022/07/15 14:26:05;;;;;;;7.85;3.33;;;;;;;;;;5025802;28;20633;-68
2022/07/15 14:28:33;;;;;;;3.78;2.90;;;;;;;;;;5025995;28;20229;-67
2022/07/15 14:31:00;;;;;;;11.90;2.50;;;;;;;;;;5020672;28;20203;-68
2022/07/15 14:33:28;;;;;;;3.50;3.20;;;;;;;;;;5018886;28;20297;-68
2022/07/15 14:35:55;;;;;;;3.85;2.85;;;;;;;;;;5025173;28;20589;-66
2022/07/15 14:38:23;;;;;;;20.65;4.18;;;;;;;;;;5019621;28;20650;-68
2022/07/15 14:40:50;;;;;;;23.90;4.38;;;;;;;;;;5032172;28;20214;-67
2022/07/15 14:43:18;;;;;;;97.10;10.05;;;;;;;;;;5016534;28;20441;-68
2022/07/15 14:45:45;;;;;;;27.08;3.70;;;;;;;;;;5000707;28;20238;-66
2022/07/15 14:48:13;;;;;;;59.00;7.53;;;;;;;;;;5025617;28;20222;-67
2022/07/15 14:50:40;;;;;;;33.97;4.70;;;;;;;;;;5017754;28;20260;-68
2022/07/15 14:53:08;;;;;;;4.93;3.42;;;;;;;;;;5010921;28;20699;-68
2022/07/15 14:55:35;;;;;;;3.22;2.90;;;;;;;;;;5011568;28;20348;-68
2022/07/15 14:58:03;;;;;;;6.28;2.50;;;;;;;;;;5031867;28;20586;-68
2022/07/15 15:00:31;;;;;;;2.97;2.50;;;;;;;;;;5017661;28;20202;-68
2022/07/15 15:02:58;;;;;;;4.55;2.50;;;;;;;;;;5014992;28;20321;-66
2022/07/15 15:05:26;;;;;;;4.35;2.40;;;;;;;;;;5020980;28;20262;-66
2022/07/15 15:07:54;;;;;;;4.00;2.78;;;;;;;;;;5047158;28;20223;-67
2022/07/15 15:10:22;;;;;;;3.53;2.42;;;;;;;;;;5030648;28;20213;-67
2022/07/15 15:12:49;;;;;;;3.55;2.35;;;;;;;;;;5019833;28;20200;-66
2022/07/15 15:15:17;;;;;;;5.45;2.47;;;;;;;;;;5014185;28;20229;-66
2022/07/15 15:17:45;;;;;;;3.30;2.10;;;;;;;;;;5010853;28;20225;-67
2022/07/15 15:20:12;;;;;;;3.58;2.60;;;;;;;;;;5010286;28;20206;-67
2022/07/15 15:22:40;;;;;;;4.38;2.45;;;;;;;;;;5032110;28;20202;-68
2022/07/15 15:25:08;;;;;;;3.97;2.50;;;;;;;;;;5043177;28;20585;-66
2022/07/15 15:27:36;;;;;;;3.47;2.58;;;;;;;;;;5018403;28;20205;-66
2022/07/15 15:30:07;;;;;;;2.92;2.20;;;;;;;;;;5027929;28;20248;-68
2022/07/15 15:32:34;;;;;;;2.58;2.38;;;;;;;;;;5029979;28;20232;-67
2022/07/15 15:35:02;;;;;;;2.75;2.25;;;;;;;;;;5026376;28;20554;-67
2022/07/15 15:37:29;;;;;;;4.00;2.40;;;;;;;;;;5025634;28;20656;-68
2022/07/15 15:39:57;;;;;;;3.72;2.40;;;;;;;;;;5020665;28;20818;-66